sensor_id;sensor_type;location;lat;lon;timestamp;P1;durP1;ratioP1;P2;durP2;ratioP2
8159;SDS011;27404;52.398;9.646;2023-01-15T00:00:41;1.60;;;0.50;;
8159;SDS011;27404;52.398;9.646;2023-01-15T00:03:06;1.63;;;0.60;;
8159;SDS011;27404;52.398;9.646;2023-01-15T00:05:34;1.07;;;0.50;;
8159;SDS011;27404;52.398;9.646;2023-01-15T00:08:00;1.53;;;0.50;;
8159;SDS011;27404;52.398;9.646;2023-01-15T00:10:26;0.90;;;0.50;;
8159;SDS011;27404;52.398;9.646;2023-01-15T00:12:52;3.43;;;0.60;;
8159;SDS011;27404;52.398;9.646;2023-01-15T00:15:17;1.17;;;0.60;;
8159;SDS011;27404;52.398;9.646;2023-01-15T00:17:43;1.27;;;0.60;;
8159;SDS011;27404;52.398;9.646;2023-01-15T00:20:08;0.97;;;0.40;;
8159;SDS011;27404;52.398;9.646;2023-01-15T00:22:34;1.03;;;0.50;;
8159;SDS011;27404;52.398;9.646;2023-01-15T00:25:00;2.13;;;0.47;;
8159;SDS011;27404;52.398;9.646;2023-01-15T00:27:43;2.20;;;0.50;;
8159;SDS011;27404;52.398;9.646;2023-01-15T00:30:11;4.00;;;0.50;;
8159;SDS011;27404;52.398;9.646;2023-01-15T00:32:38;3.30;;;0.43;;
8159;SDS011;27404;52.398;9.646;2023-01-15T00:35:04;1.83;;;0.60;;
8159;SDS011;27404;52.398;9.646;2023-01-15T00:37:30;2.23;;;0.67;;
8159;SDS011;27404;52.398;9.646;2023-01-15T00:39:55;2.27;;;0.83;;
8159;SDS011;27404;52.398;9.646;2023-01-15T00:42:21;2.07;;;0.63;;
8159;SDS011;27404;52.398;9.646;2023-01-15T00:44:46;2.33;;;0.50;;
8159;SDS011;27404;52.398;9.646;2023-01-15T00:47:12;2.80;;;0.60;;
8159;SDS011;27404;52.398;9.646;2023-01-15T00:49:42;2.53;;;0.73;;
8159;SDS011;27404;52.398;9.646;2023-01-15T00:52:08;6.30;;;0.77;;
8159;SDS011;27404;52.398;9.646;2023-01-15T00:54:34;0.40;;;0.30;;
8159;SDS011;27404;52.398;9.646;2023-01-15T00:56:59;6.03;;;1.00;;
8159;SDS011;27404;52.398;9.646;2023-01-15T00:59:25;1.70;;;0.60;;
8159;SDS011;27404;52.398;9.646;2023-01-15T01:01:50;2.20;;;0.60;;
8159;SDS011;27404;52.398;9.646;2023-01-15T01:04:16;3.50;;;0.80;;
8159;SDS011;27404;52.398;9.646;2023-01-15T01:06:41;4.13;;;0.53;;
8159;SDS011;27404;52.398;9.646;2023-01-15T01:09:07;1.57;;;0.40;;
8159;SDS011;27404;52.398;9.646;2023-01-15T01:11:34;2.63;;;0.40;;
8159;SDS011;27404;52.398;9.646;2023-01-15T01:14:01;0.80;;;0.40;;
8159;SDS011;27404;52.398;9.646;2023-01-15T01:18:59;1.03;;;0.50;;
8159;SDS011;27404;52.398;9.646;2023-01-15T01:21:28;2.40;;;0.50;;
8159;SDS011;27404;52.398;9.646;2023-01-15T01:23:54;1.47;;;0.37;;
8159;SDS011;27404;52.398;9.646;2023-01-15T01:26:22;3.00;;;0.50;;
8159;SDS011;27404;52.398;9.646;2023-01-15T01:28:48;1.87;;;0.60;;
8159;SDS011;27404;52.398;9.646;2023-01-15T01:31:15;3.00;;;0.70;;
8159;SDS011;27404;52.398;9.646;2023-01-15T01:33:41;1.20;;;0.50;;
8159;SDS011;27404;52.398;9.646;2023-01-15T01:36:07;3.07;;;0.60;;
8159;SDS011;27404;52.398;9.646;2023-01-15T01:38:32;1.53;;;0.53;;
8159;SDS011;27404;52.398;9.646;2023-01-15T01:40:58;1.17;;;0.33;;
8159;SDS011;27404;52.398;9.646;2023-01-15T01:43:27;1.17;;;0.63;;
8159;SDS011;27404;52.398;9.646;2023-01-15T01:45:54;2.70;;;0.40;;
8159;SDS011;27404;52.398;9.646;2023-01-15T01:48:20;1.47;;;0.20;;
8159;SDS011;27404;52.398;9.646;2023-01-15T01:50:50;0.70;;;0.30;;
8159;SDS011;27404;52.398;9.646;2023-01-15T01:53:20;0.80;;;0.40;;
8159;SDS011;27404;52.398;9.646;2023-01-15T01:55:49;2.23;;;0.50;;
8159;SDS011;27404;52.398;9.646;2023-01-15T01:58:16;4.23;;;0.83;;
8159;SDS011;27404;52.398;9.646;2023-01-15T02:00:45;2.67;;;0.50;;
8159;SDS011;27404;52.398;9.646;2023-01-15T02:03:12;1.87;;;0.37;;
8159;SDS011;27404;52.398;9.646;2023-01-15T02:05:39;1.60;;;0.50;;
8159;SDS011;27404;52.398;9.646;2023-01-15T02:08:09;1.27;;;0.40;;
8159;SDS011;27404;52.398;9.646;2023-01-15T02:10:35;1.13;;;0.37;;
8159;SDS011;27404;52.398;9.646;2023-01-15T02:15:44;1.63;;;0.50;;
8159;SDS011;27404;52.398;9.646;2023-01-15T02:26:59;0.97;;;0.30;;
8159;SDS011;27404;52.398;9.646;2023-01-15T02:29:40;4.13;;;0.40;;
8159;SDS011;27404;52.398;9.646;2023-01-15T02:32:36;1.47;;;0.40;;
8159;SDS011;27404;52.398;9.646;2023-01-15T02:35:33;2.20;;;0.40;;
8159;SDS011;27404;52.398;9.646;2023-01-15T02:38:06;0.90;;;0.33;;
8159;SDS011;27404;52.398;9.646;2023-01-15T02:40:35;1.07;;;0.30;;
8159;SDS011;27404;52.398;9.646;2023-01-15T02:43:03;2.43;;;0.30;;
8159;SDS011;27404;52.398;9.646;2023-01-15T02:45:31;1.33;;;0.37;;
8159;SDS011;27404;52.398;9.646;2023-01-15T02:48:02;0.63;;;0.20;;
8159;SDS011;27404;52.398;9.646;2023-01-15T02:50:34;2.10;;;0.50;;
8159;SDS011;27404;52.398;9.646;2023-01-15T02:53:04;2.50;;;0.53;;
8159;SDS011;27404;52.398;9.646;2023-01-15T02:55:42;1.23;;;0.60;;
8159;SDS011;27404;52.398;9.646;2023-01-15T02:58:12;0.43;;;0.17;;
8159;SDS011;27404;52.398;9.646;2023-01-15T03:00:42;0.70;;;0.30;;
8159;SDS011;27404;52.398;9.646;2023-01-15T03:06:10;1.27;;;0.37;;
8159;SDS011;27404;52.398;9.646;2023-01-15T03:08:46;1.33;;;0.27;;
8159;SDS011;27404;52.398;9.646;2023-01-15T03:11:13;1.27;;;0.30;;
8159;SDS011;27404;52.398;9.646;2023-01-15T03:16:29;2.67;;;0.50;;
8159;SDS011;27404;52.398;9.646;2023-01-15T03:24:38;1.97;;;0.40;;
8159;SDS011;27404;52.398;9.646;2023-01-15T03:27:06;0.77;;;0.30;;
8159;SDS011;27404;52.398;9.646;2023-01-15T03:29:36;2.57;;;0.60;;
8159;SDS011;27404;52.398;9.646;2023-01-15T03:32:04;1.67;;;0.40;;
8159;SDS011;27404;52.398;9.646;2023-01-15T03:34:32;2.03;;;0.53;;
8159;SDS011;27404;52.398;9.646;2023-01-15T03:37:02;3.17;;;0.67;;
8159;SDS011;27404;52.398;9.646;2023-01-15T03:39:28;2.53;;;0.57;;
8159;SDS011;27404;52.398;9.646;2023-01-15T03:42:01;2.10;;;0.50;;
8159;SDS011;27404;52.398;9.646;2023-01-15T03:50:37;3.00;;;0.97;;
8159;SDS011;27404;52.398;9.646;2023-01-15T03:56:07;2.67;;;0.73;;
8159;SDS011;27404;52.398;9.646;2023-01-15T04:01:23;1.90;;;0.80;;
8159;SDS011;27404;52.398;9.646;2023-01-15T04:03:52;3.27;;;0.70;;
8159;SDS011;27404;52.398;9.646;2023-01-15T04:06:20;1.60;;;0.53;;
8159;SDS011;27404;52.398;9.646;2023-01-15T04:08:49;3.30;;;0.80;;
8159;SDS011;27404;52.398;9.646;2023-01-15T04:11:20;4.67;;;0.97;;
8159;SDS011;27404;52.398;9.646;2023-01-15T04:13:50;4.10;;;0.80;;
8159;SDS011;27404;52.398;9.646;2023-01-15T04:16:16;1.80;;;1.10;;
8159;SDS011;27404;52.398;9.646;2023-01-15T04:18:48;2.87;;;0.83;;
8159;SDS011;27404;52.398;9.646;2023-01-15T04:21:13;3.17;;;0.77;;
8159;SDS011;27404;52.398;9.646;2023-01-15T04:23:39;4.73;;;0.90;;
8159;SDS011;27404;52.398;9.646;2023-01-15T04:26:04;3.53;;;0.70;;
8159;SDS011;27404;52.398;9.646;2023-01-15T04:28:31;2.77;;;0.70;;
8159;SDS011;27404;52.398;9.646;2023-01-15T04:30:57;3.67;;;0.80;;
8159;SDS011;27404;52.398;9.646;2023-01-15T04:33:24;2.83;;;0.80;;
8159;SDS011;27404;52.398;9.646;2023-01-15T04:35:49;2.60;;;0.73;;
8159;SDS011;27404;52.398;9.646;2023-01-15T04:38:15;4.00;;;0.87;;
8159;SDS011;27404;52.398;9.646;2023-01-15T04:40:42;2.07;;;0.90;;
8159;SDS011;27404;52.398;9.646;2023-01-15T04:43:26;2.70;;;0.70;;
8159;SDS011;27404;52.398;9.646;2023-01-15T04:46:10;2.27;;;0.90;;
8159;SDS011;27404;52.398;9.646;2023-01-15T04:48:37;2.50;;;0.90;;
8159;SDS011;27404;52.398;9.646;2023-01-15T04:51:03;2.67;;;1.00;;
8159;SDS011;27404;52.398;9.646;2023-01-15T04:53:30;3.67;;;1.30;;
8159;SDS011;27404;52.398;9.646;2023-01-15T04:55:59;4.93;;;0.70;;
8159;SDS011;27404;52.398;9.646;2023-01-15T04:58:26;1.27;;;0.87;;
8159;SDS011;27404;52.398;9.646;2023-01-15T05:00:51;2.03;;;1.03;;
8159;SDS011;27404;52.398;9.646;2023-01-15T05:03:17;2.37;;;0.97;;
8159;SDS011;27404;52.398;9.646;2023-01-15T05:05:42;2.83;;;0.90;;
8159;SDS011;27404;52.398;9.646;2023-01-15T05:08:08;4.70;;;1.10;;
8159;SDS011;27404;52.398;9.646;2023-01-15T05:10:34;4.57;;;1.10;;
8159;SDS011;27404;52.398;9.646;2023-01-15T05:12:59;3.10;;;1.00;;
8159;SDS011;27404;52.398;9.646;2023-01-15T05:15:24;3.80;;;1.00;;
8159;SDS011;27404;52.398;9.646;2023-01-15T05:17:50;5.33;;;1.03;;
8159;SDS011;27404;52.398;9.646;2023-01-15T05:20:15;9.07;;;1.30;;
8159;SDS011;27404;52.398;9.646;2023-01-15T05:22:41;3.73;;;1.10;;
8159;SDS011;27404;52.398;9.646;2023-01-15T05:25:06;2.80;;;1.00;;
8159;SDS011;27404;52.398;9.646;2023-01-15T05:27:32;4.13;;;1.20;;
8159;SDS011;27404;52.398;9.646;2023-01-15T05:29:57;4.23;;;1.27;;
8159;SDS011;27404;52.398;9.646;2023-01-15T05:32:23;4.67;;;1.07;;
8159;SDS011;27404;52.398;9.646;2023-01-15T05:34:48;9.30;;;1.20;;
8159;SDS011;27404;52.398;9.646;2023-01-15T05:37:14;4.67;;;1.30;;
8159;SDS011;27404;52.398;9.646;2023-01-15T05:39:39;3.00;;;1.20;;
8159;SDS011;27404;52.398;9.646;2023-01-15T05:42:04;3.40;;;0.90;;
8159;SDS011;27404;52.398;9.646;2023-01-15T05:44:31;7.10;;;1.50;;
8159;SDS011;27404;52.398;9.646;2023-01-15T05:46:58;4.80;;;1.17;;
8159;SDS011;27404;52.398;9.646;2023-01-15T05:49:27;4.50;;;0.90;;
8159;SDS011;27404;52.398;9.646;2023-01-15T05:51:55;5.60;;;1.30;;
8159;SDS011;27404;52.398;9.646;2023-01-15T05:54:24;3.57;;;0.93;;
8159;SDS011;27404;52.398;9.646;2023-01-15T05:56:52;2.07;;;1.10;;
8159;SDS011;27404;52.398;9.646;2023-01-15T05:59:18;9.73;;;1.43;;
8159;SDS011;27404;52.398;9.646;2023-01-15T06:01:45;8.03;;;1.37;;
8159;SDS011;27404;52.398;9.646;2023-01-15T06:04:11;3.17;;;1.47;;
8159;SDS011;27404;52.398;9.646;2023-01-15T06:06:42;4.13;;;1.80;;
8159;SDS011;27404;52.398;9.646;2023-01-15T06:09:07;4.83;;;1.40;;
8159;SDS011;27404;52.398;9.646;2023-01-15T06:11:33;7.03;;;1.50;;
8159;SDS011;27404;52.398;9.646;2023-01-15T06:13:59;5.13;;;1.67;;
8159;SDS011;27404;52.398;9.646;2023-01-15T06:16:25;4.93;;;1.60;;
8159;SDS011;27404;52.398;9.646;2023-01-15T06:18:51;9.63;;;1.53;;
8159;SDS011;27404;52.398;9.646;2023-01-15T06:21:16;8.33;;;1.57;;
8159;SDS011;27404;52.398;9.646;2023-01-15T06:23:42;4.33;;;1.50;;
8159;SDS011;27404;52.398;9.646;2023-01-15T06:26:15;5.70;;;1.70;;
8159;SDS011;27404;52.398;9.646;2023-01-15T06:28:41;3.33;;;1.53;;
8159;SDS011;27404;52.398;9.646;2023-01-15T06:31:08;7.70;;;1.77;;
8159;SDS011;27404;52.398;9.646;2023-01-15T06:33:36;3.37;;;1.47;;
8159;SDS011;27404;52.398;9.646;2023-01-15T06:36:03;10.03;;;1.50;;
8159;SDS011;27404;52.398;9.646;2023-01-15T06:38:37;6.10;;;1.47;;
8159;SDS011;27404;52.398;9.646;2023-01-15T06:41:04;7.60;;;1.73;;
8159;SDS011;27404;52.398;9.646;2023-01-15T06:43:54;5.17;;;1.40;;
8159;SDS011;27404;52.398;9.646;2023-01-15T06:46:42;5.77;;;1.70;;
8159;SDS011;27404;52.398;9.646;2023-01-15T06:49:31;5.37;;;1.50;;
8159;SDS011;27404;52.398;9.646;2023-01-15T06:51:57;7.77;;;1.73;;
8159;SDS011;27404;52.398;9.646;2023-01-15T06:54:22;6.77;;;1.30;;
8159;SDS011;27404;52.398;9.646;2023-01-15T06:56:48;6.13;;;1.60;;
8159;SDS011;27404;52.398;9.646;2023-01-15T06:59:14;4.10;;;1.20;;
8159;SDS011;27404;52.398;9.646;2023-01-15T07:01:39;7.23;;;1.50;;
8159;SDS011;27404;52.398;9.646;2023-01-15T07:04:05;3.90;;;1.53;;
8159;SDS011;27404;52.398;9.646;2023-01-15T07:06:30;8.63;;;1.70;;
8159;SDS011;27404;52.398;9.646;2023-01-15T07:08:56;6.37;;;1.50;;
8159;SDS011;27404;52.398;9.646;2023-01-15T07:11:21;4.53;;;1.40;;
8159;SDS011;27404;52.398;9.646;2023-01-15T07:13:46;4.87;;;1.60;;
8159;SDS011;27404;52.398;9.646;2023-01-15T07:16:13;10.03;;;1.30;;
8159;SDS011;27404;52.398;9.646;2023-01-15T07:18:54;6.30;;;1.47;;
8159;SDS011;27404;52.398;9.646;2023-01-15T07:21:20;3.37;;;1.67;;
8159;SDS011;27404;52.398;9.646;2023-01-15T07:23:46;6.67;;;1.43;;
8159;SDS011;27404;52.398;9.646;2023-01-15T07:26:12;9.63;;;1.90;;
8159;SDS011;27404;52.398;9.646;2023-01-15T07:28:38;2.63;;;1.30;;
8159;SDS011;27404;52.398;9.646;2023-01-15T07:31:04;8.60;;;1.53;;
8159;SDS011;27404;52.398;9.646;2023-01-15T07:33:29;7.53;;;1.63;;
8159;SDS011;27404;52.398;9.646;2023-01-15T07:35:55;4.20;;;1.57;;
8159;SDS011;27404;52.398;9.646;2023-01-15T07:38:21;5.20;;;1.50;;
8159;SDS011;27404;52.398;9.646;2023-01-15T07:40:47;5.77;;;1.30;;
8159;SDS011;27404;52.398;9.646;2023-01-15T07:43:35;4.53;;;1.70;;
8159;SDS011;27404;52.398;9.646;2023-01-15T07:46:19;9.53;;;1.43;;
8159;SDS011;27404;52.398;9.646;2023-01-15T07:49:04;6.63;;;2.07;;
8159;SDS011;27404;52.398;9.646;2023-01-15T07:51:52;3.70;;;1.40;;
8159;SDS011;27404;52.398;9.646;2023-01-15T07:54:18;8.10;;;1.80;;
8159;SDS011;27404;52.398;9.646;2023-01-15T07:56:43;7.13;;;1.97;;
8159;SDS011;27404;52.398;9.646;2023-01-15T07:59:08;8.30;;;2.27;;
8159;SDS011;27404;52.398;9.646;2023-01-15T08:01:34;8.00;;;1.90;;
8159;SDS011;27404;52.398;9.646;2023-01-15T08:03:59;6.53;;;1.87;;
8159;SDS011;27404;52.398;9.646;2023-01-15T08:06:25;5.07;;;1.43;;
8159;SDS011;27404;52.398;9.646;2023-01-15T08:08:50;5.77;;;1.57;;
8159;SDS011;27404;52.398;9.646;2023-01-15T08:11:15;4.53;;;1.60;;
8159;SDS011;27404;52.398;9.646;2023-01-15T08:13:59;5.43;;;1.63;;
8159;SDS011;27404;52.398;9.646;2023-01-15T08:16:43;4.57;;;1.40;;
8159;SDS011;27404;52.398;9.646;2023-01-15T08:19:09;7.47;;;1.90;;
8159;SDS011;27404;52.398;9.646;2023-01-15T08:21:34;4.73;;;1.90;;
8159;SDS011;27404;52.398;9.646;2023-01-15T08:24:00;6.20;;;1.90;;
8159;SDS011;27404;52.398;9.646;2023-01-15T08:26:25;10.23;;;2.00;;
8159;SDS011;27404;52.398;9.646;2023-01-15T08:28:50;7.77;;;1.60;;
8159;SDS011;27404;52.398;9.646;2023-01-15T08:31:16;6.17;;;1.60;;
8159;SDS011;27404;52.398;9.646;2023-01-15T08:33:41;6.03;;;1.53;;
8159;SDS011;27404;52.398;9.646;2023-01-15T08:36:07;8.67;;;2.10;;
8159;SDS011;27404;52.398;9.646;2023-01-15T08:38:33;5.77;;;1.57;;
8159;SDS011;27404;52.398;9.646;2023-01-15T08:40:58;5.47;;;1.70;;
8159;SDS011;27404;52.398;9.646;2023-01-15T08:43:27;8.47;;;1.53;;
8159;SDS011;27404;52.398;9.646;2023-01-15T08:45:55;6.80;;;1.77;;
8159;SDS011;27404;52.398;9.646;2023-01-15T08:48:22;4.30;;;1.17;;
8159;SDS011;27404;52.398;9.646;2023-01-15T08:50:48;10.60;;;1.60;;
8159;SDS011;27404;52.398;9.646;2023-01-15T08:53:14;6.30;;;1.40;;
8159;SDS011;27404;52.398;9.646;2023-01-15T08:55:40;4.83;;;1.50;;
8159;SDS011;27404;52.398;9.646;2023-01-15T08:58:06;5.83;;;1.70;;
8159;SDS011;27404;52.398;9.646;2023-01-15T09:00:31;6.47;;;1.63;;
8159;SDS011;27404;52.398;9.646;2023-01-15T09:02:57;5.57;;;1.40;;
8159;SDS011;27404;52.398;9.646;2023-01-15T09:05:22;5.10;;;1.60;;
8159;SDS011;27404;52.398;9.646;2023-01-15T09:07:47;11.07;;;1.73;;
8159;SDS011;27404;52.398;9.646;2023-01-15T09:10:13;7.37;;;1.67;;
8159;SDS011;27404;52.398;9.646;2023-01-15T09:12:39;4.67;;;1.40;;
8159;SDS011;27404;52.398;9.646;2023-01-15T09:15:04;6.53;;;2.30;;
8159;SDS011;27404;52.398;9.646;2023-01-15T09:17:30;6.67;;;1.77;;
8159;SDS011;27404;52.398;9.646;2023-01-15T09:19:56;4.97;;;1.50;;
8159;SDS011;27404;52.398;9.646;2023-01-15T09:22:22;3.50;;;1.43;;
8159;SDS011;27404;52.398;9.646;2023-01-15T09:24:47;4.43;;;1.50;;
8159;SDS011;27404;52.398;9.646;2023-01-15T09:27:13;6.37;;;1.67;;
8159;SDS011;27404;52.398;9.646;2023-01-15T09:29:38;4.20;;;1.43;;
8159;SDS011;27404;52.398;9.646;2023-01-15T09:32:04;8.00;;;1.97;;
8159;SDS011;27404;52.398;9.646;2023-01-15T09:34:29;6.67;;;1.70;;
8159;SDS011;27404;52.398;9.646;2023-01-15T09:36:55;5.37;;;1.33;;
8159;SDS011;27404;52.398;9.646;2023-01-15T09:39:20;9.50;;;1.47;;
8159;SDS011;27404;52.398;9.646;2023-01-15T09:53:51;3.03;;;0.97;;
8159;SDS011;27404;52.398;9.646;2023-01-15T09:56:29;6.53;;;1.47;;
8159;SDS011;27404;52.398;9.646;2023-01-15T09:58:57;5.77;;;1.10;;
8159;SDS011;27404;52.398;9.646;2023-01-15T10:01:28;4.27;;;1.57;;
8159;SDS011;27404;52.398;9.646;2023-01-15T10:06:29;4.03;;;1.40;;
8159;SDS011;27404;52.398;9.646;2023-01-15T10:09:03;3.90;;;1.03;;
8159;SDS011;27404;52.398;9.646;2023-01-15T10:11:38;7.97;;;1.30;;
8159;SDS011;27404;52.398;9.646;2023-01-15T10:14:30;3.30;;;1.00;;
8159;SDS011;27404;52.398;9.646;2023-01-15T10:17:03;4.40;;;1.00;;
8159;SDS011;27404;52.398;9.646;2023-01-15T10:19:39;4.30;;;1.60;;
8159;SDS011;27404;52.398;9.646;2023-01-15T10:22:28;4.80;;;1.23;;
8159;SDS011;27404;52.398;9.646;2023-01-15T10:24:55;4.30;;;1.10;;
8159;SDS011;27404;52.398;9.646;2023-01-15T10:27:22;4.00;;;1.00;;
8159;SDS011;27404;52.398;9.646;2023-01-15T10:32:54;4.43;;;1.20;;
8159;SDS011;27404;52.398;9.646;2023-01-15T10:38:00;3.67;;;0.97;;
8159;SDS011;27404;52.398;9.646;2023-01-15T10:43:48;4.17;;;1.03;;
8159;SDS011;27404;52.398;9.646;2023-01-15T10:46:21;4.83;;;1.10;;
8159;SDS011;27404;52.398;9.646;2023-01-15T10:48:50;4.63;;;1.20;;
8159;SDS011;27404;52.398;9.646;2023-01-15T10:51:33;5.80;;;1.40;;
8159;SDS011;27404;52.398;9.646;2023-01-15T10:54:06;3.97;;;0.93;;
8159;SDS011;27404;52.398;9.646;2023-01-15T10:57:16;6.50;;;2.33;;
8159;SDS011;27404;52.398;9.646;2023-01-15T10:59:56;3.33;;;1.10;;
8159;SDS011;27404;52.398;9.646;2023-01-15T11:02:31;4.63;;;1.33;;
8159;SDS011;27404;52.398;9.646;2023-01-15T11:05:03;7.37;;;1.50;;
8159;SDS011;27404;52.398;9.646;2023-01-15T11:10:11;5.03;;;1.23;;
8159;SDS011;27404;52.398;9.646;2023-01-15T11:12:44;12.10;;;1.50;;
8159;SDS011;27404;52.398;9.646;2023-01-15T11:15:36;3.80;;;1.10;;
8159;SDS011;27404;52.398;9.646;2023-01-15T11:18:23;7.27;;;1.20;;
8159;SDS011;27404;52.398;9.646;2023-01-15T11:21:20;4.60;;;1.47;;
8159;SDS011;27404;52.398;9.646;2023-01-15T11:23:47;4.87;;;1.30;;
8159;SDS011;27404;52.398;9.646;2023-01-15T11:26:21;5.10;;;1.40;;
8159;SDS011;27404;52.398;9.646;2023-01-15T11:28:50;2.60;;;0.90;;
8159;SDS011;27404;52.398;9.646;2023-01-15T11:31:16;3.57;;;0.93;;
8159;SDS011;27404;52.398;9.646;2023-01-15T11:33:57;5.03;;;1.37;;
8159;SDS011;27404;52.398;9.646;2023-01-15T11:36:26;6.50;;;1.33;;
8159;SDS011;27404;52.398;9.646;2023-01-15T11:38:52;4.73;;;2.40;;
8159;SDS011;27404;52.398;9.646;2023-01-15T11:41:22;6.07;;;1.10;;
8159;SDS011;27404;52.398;9.646;2023-01-15T11:44:12;3.40;;;0.93;;
8159;SDS011;27404;52.398;9.646;2023-01-15T11:46:57;2.77;;;0.90;;
8159;SDS011;27404;52.398;9.646;2023-01-15T11:49:51;2.60;;;1.00;;
8159;SDS011;27404;52.398;9.646;2023-01-15T11:52:37;4.57;;;0.80;;
8159;SDS011;27404;52.398;9.646;2023-01-15T11:55:10;3.03;;;1.00;;
8159;SDS011;27404;52.398;9.646;2023-01-15T11:57:38;3.00;;;0.87;;
8159;SDS011;27404;52.398;9.646;2023-01-15T12:00:05;1.97;;;1.00;;
8159;SDS011;27404;52.398;9.646;2023-01-15T12:02:35;5.60;;;1.10;;
8159;SDS011;27404;52.398;9.646;2023-01-15T12:05:25;4.83;;;1.27;;
8159;SDS011;27404;52.398;9.646;2023-01-15T12:07:54;3.67;;;1.10;;
8159;SDS011;27404;52.398;9.646;2023-01-15T12:11:07;5.00;;;1.20;;
8159;SDS011;27404;52.398;9.646;2023-01-15T12:18:57;2.10;;;0.83;;
8159;SDS011;27404;52.398;9.646;2023-01-15T12:21:47;3.93;;;1.10;;
8159;SDS011;27404;52.398;9.646;2023-01-15T12:27:04;4.83;;;1.00;;
8159;SDS011;27404;52.398;9.646;2023-01-15T12:29:56;2.40;;;0.90;;
8159;SDS011;27404;52.398;9.646;2023-01-15T12:32:42;3.40;;;0.80;;
8159;SDS011;27404;52.398;9.646;2023-01-15T12:37:45;4.63;;;1.10;;
8159;SDS011;27404;52.398;9.646;2023-01-15T12:40:21;4.23;;;1.20;;
8159;SDS011;27404;52.398;9.646;2023-01-15T12:42:52;2.10;;;1.03;;
8159;SDS011;27404;52.398;9.646;2023-01-15T12:45:40;2.70;;;1.07;;
8159;SDS011;27404;52.398;9.646;2023-01-15T12:48:17;2.70;;;0.80;;
8159;SDS011;27404;52.398;9.646;2023-01-15T12:56:16;7.07;;;1.50;;
8159;SDS011;27404;52.398;9.646;2023-01-15T12:58:53;9.73;;;1.43;;
8159;SDS011;27404;52.398;9.646;2023-01-15T13:04:51;5.27;;;0.90;;
8159;SDS011;27404;52.398;9.646;2023-01-15T13:10:08;3.07;;;0.90;;
8159;SDS011;27404;52.398;9.646;2023-01-15T13:12:41;1.87;;;1.17;;
8159;SDS011;27404;52.398;9.646;2023-01-15T13:15:11;4.47;;;1.53;;
8159;SDS011;27404;52.398;9.646;2023-01-15T13:23:00;2.73;;;0.63;;
8159;SDS011;27404;52.398;9.646;2023-01-15T13:25:34;5.77;;;1.10;;
8159;SDS011;27404;52.398;9.646;2023-01-15T13:33:52;2.73;;;0.90;;
8159;SDS011;27404;52.398;9.646;2023-01-15T13:36:24;4.50;;;1.00;;
8159;SDS011;27404;52.398;9.646;2023-01-15T13:38:57;3.10;;;1.10;;
8159;SDS011;27404;52.398;9.646;2023-01-15T13:41:28;4.53;;;0.87;;
8159;SDS011;27404;52.398;9.646;2023-01-15T13:47:07;3.30;;;1.37;;
8159;SDS011;27404;52.398;9.646;2023-01-15T13:49:40;5.57;;;1.10;;
8159;SDS011;27404;52.398;9.646;2023-01-15T13:52:20;3.80;;;1.07;;
8159;SDS011;27404;52.398;9.646;2023-01-15T13:54:50;3.97;;;1.07;;
8159;SDS011;27404;52.398;9.646;2023-01-15T13:57:22;3.47;;;1.20;;
8159;SDS011;27404;52.398;9.646;2023-01-15T13:59:49;2.83;;;0.80;;
8159;SDS011;27404;52.398;9.646;2023-01-15T14:02:22;4.53;;;0.80;;
8159;SDS011;27404;52.398;9.646;2023-01-15T14:04:52;6.30;;;1.47;;
8159;SDS011;27404;52.398;9.646;2023-01-15T14:07:18;1.93;;;0.80;;
8159;SDS011;27404;52.398;9.646;2023-01-15T14:09:47;4.10;;;0.87;;
8159;SDS011;27404;52.398;9.646;2023-01-15T14:15:14;4.27;;;1.13;;
8159;SDS011;27404;52.398;9.646;2023-01-15T14:18:03;5.17;;;1.27;;
8159;SDS011;27404;52.398;9.646;2023-01-15T14:21:12;5.47;;;1.10;;
8159;SDS011;27404;52.398;9.646;2023-01-15T14:24:04;5.77;;;1.00;;
8159;SDS011;27404;52.398;9.646;2023-01-15T14:31:58;2.60;;;1.10;;
8159;SDS011;27404;52.398;9.646;2023-01-15T14:34:33;4.13;;;1.37;;
8159;SDS011;27404;52.398;9.646;2023-01-15T14:37:01;4.23;;;1.00;;
8159;SDS011;27404;52.398;9.646;2023-01-15T14:39:29;4.87;;;1.20;;
8159;SDS011;27404;52.398;9.646;2023-01-15T14:45:16;4.37;;;0.90;;
8159;SDS011;27404;52.398;9.646;2023-01-15T14:47:49;5.70;;;1.40;;
8159;SDS011;27404;52.398;9.646;2023-01-15T14:52:51;6.27;;;1.23;;
8159;SDS011;27404;52.398;9.646;2023-01-15T14:55:18;4.83;;;1.50;;
8159;SDS011;27404;52.398;9.646;2023-01-15T14:57:54;4.87;;;1.30;;
8159;SDS011;27404;52.398;9.646;2023-01-15T15:00:25;4.67;;;1.10;;
8159;SDS011;27404;52.398;9.646;2023-01-15T15:02:58;5.10;;;1.33;;
8159;SDS011;27404;52.398;9.646;2023-01-15T15:05:26;5.67;;;1.73;;
8159;SDS011;27404;52.398;9.646;2023-01-15T15:07:53;6.37;;;1.20;;
8159;SDS011;27404;52.398;9.646;2023-01-15T15:10:24;3.47;;;1.20;;
8159;SDS011;27404;52.398;9.646;2023-01-15T15:15:49;4.13;;;1.03;;
8159;SDS011;27404;52.398;9.646;2023-01-15T15:26:31;6.27;;;1.27;;
8159;SDS011;27404;52.398;9.646;2023-01-15T15:28:59;3.43;;;0.70;;
8159;SDS011;27404;52.398;9.646;2023-01-15T15:31:52;5.00;;;1.10;;
8159;SDS011;27404;52.398;9.646;2023-01-15T15:36:53;3.93;;;0.80;;
8159;SDS011;27404;52.398;9.646;2023-01-15T15:40:03;4.53;;;1.10;;
8159;SDS011;27404;52.398;9.646;2023-01-15T15:42:18;3.97;;;1.17;;
8159;SDS011;27404;52.398;9.646;2023-01-15T15:45:06;4.77;;;1.17;;
8159;SDS011;27404;52.398;9.646;2023-01-15T15:48:49;7.20;;;1.10;;
8159;SDS011;27404;52.398;9.646;2023-01-15T15:54:03;5.57;;;1.07;;
8159;SDS011;27404;52.398;9.646;2023-01-15T15:56:32;2.70;;;0.90;;
8159;SDS011;27404;52.398;9.646;2023-01-15T15:58:59;6.13;;;1.23;;
8159;SDS011;27404;52.398;9.646;2023-01-15T16:01:24;2.80;;;1.00;;
8159;SDS011;27404;52.398;9.646;2023-01-15T16:03:50;4.27;;;1.20;;
8159;SDS011;27404;52.398;9.646;2023-01-15T16:06:20;3.73;;;1.10;;
8159;SDS011;27404;52.398;9.646;2023-01-15T16:08:52;5.50;;;1.67;;
8159;SDS011;27404;52.398;9.646;2023-01-15T16:11:20;4.27;;;1.30;;
8159;SDS011;27404;52.398;9.646;2023-01-15T16:13:50;4.33;;;1.43;;
8159;SDS011;27404;52.398;9.646;2023-01-15T16:16:17;5.87;;;1.77;;
8159;SDS011;27404;52.398;9.646;2023-01-15T16:18:50;4.60;;;1.07;;
8159;SDS011;27404;52.398;9.646;2023-01-15T16:21:26;5.17;;;1.20;;
8159;SDS011;27404;52.398;9.646;2023-01-15T16:24:04;5.77;;;2.30;;
8159;SDS011;27404;52.398;9.646;2023-01-15T16:26:32;5.10;;;2.00;;
8159;SDS011;27404;52.398;9.646;2023-01-15T16:28:59;6.03;;;2.40;;
8159;SDS011;27404;52.398;9.646;2023-01-15T16:31:34;4.50;;;1.93;;
8159;SDS011;27404;52.398;9.646;2023-01-15T16:34:01;4.67;;;0.93;;
8159;SDS011;27404;52.398;9.646;2023-01-15T16:36:36;3.03;;;0.83;;
8159;SDS011;27404;52.398;9.646;2023-01-15T16:39:03;3.03;;;1.20;;
8159;SDS011;27404;52.398;9.646;2023-01-15T16:41:31;4.20;;;0.80;;
8159;SDS011;27404;52.398;9.646;2023-01-15T16:44:04;3.43;;;1.67;;
8159;SDS011;27404;52.398;9.646;2023-01-15T16:46:41;2.80;;;1.47;;
8159;SDS011;27404;52.398;9.646;2023-01-15T16:49:18;3.90;;;0.83;;
8159;SDS011;27404;52.398;9.646;2023-01-15T16:51:47;3.63;;;1.20;;
8159;SDS011;27404;52.398;9.646;2023-01-15T16:56:54;3.83;;;0.90;;
8159;SDS011;27404;52.398;9.646;2023-01-15T17:02:14;4.47;;;1.00;;
8159;SDS011;27404;52.398;9.646;2023-01-15T17:04:44;3.83;;;0.90;;
8159;SDS011;27404;52.398;9.646;2023-01-15T17:07:17;3.90;;;0.90;;
8159;SDS011;27404;52.398;9.646;2023-01-15T17:09:51;5.37;;;1.10;;
8159;SDS011;27404;52.398;9.646;2023-01-15T17:12:26;4.20;;;1.33;;
8159;SDS011;27404;52.398;9.646;2023-01-15T17:17:42;2.07;;;0.83;;
8159;SDS011;27404;52.398;9.646;2023-01-15T17:20:18;2.57;;;0.80;;
8159;SDS011;27404;52.398;9.646;2023-01-15T17:22:45;4.27;;;1.47;;
8159;SDS011;27404;52.398;9.646;2023-01-15T17:25:26;5.17;;;1.10;;
8159;SDS011;27404;52.398;9.646;2023-01-15T17:27:59;4.00;;;1.20;;
8159;SDS011;27404;52.398;9.646;2023-01-15T17:30:26;4.93;;;1.00;;
8159;SDS011;27404;52.398;9.646;2023-01-15T17:32:58;3.07;;;1.10;;
8159;SDS011;27404;52.398;9.646;2023-01-15T17:35:26;3.90;;;0.90;;
8159;SDS011;27404;52.398;9.646;2023-01-15T17:37:53;3.50;;;0.90;;
8159;SDS011;27404;52.398;9.646;2023-01-15T17:40:19;4.40;;;1.20;;